WZZ1213 LBSF-LROP
Flight info
| Callsign | WZZ1213 |
|---|---|
| Flight time | 0h 35m |
| Altitude | 21000 |
| Route | GOL4S/09 GOL DCT SOMOV DCT SORDU |
| Aircraft | A21N/M-SDE2E3FGHIRWXY/LB1 |
Departure
| Time | 2026-05-04 16:12 |
|---|---|
| Airport | Sofia Airport (LBSF) |
Arrival
| Time | 2026-05-04 16:47 |
|---|---|
| Airport | Bucharest Henri Coandă International Airport (LROP) |
| Time | Latitude | Longitude | Altitude | Speed | Heading |
|---|---|---|---|---|---|
| 2026-05-04 15:56 | 42.69418 | 23.39437 | 1740 ft | 0 kts | 278° |
| 2026-05-04 16:05 | 42.69435 | 23.39403 | 1743 ft | 6 kts | 319° |
| 2026-05-04 16:06 | 42.69478 | 23.39393 | 1742 ft | 8 kts | 3° |
| 2026-05-04 16:06 | 42.69660 | 23.39416 | 1742 ft | 6 kts | 23° |
| 2026-05-04 16:07 | 42.69665 | 23.39421 | 1741 ft | 0 kts | 37° |
| 2026-05-04 16:09 | 42.69671 | 23.39427 | 1744 ft | 3 kts | 37° |
| 2026-05-04 16:10 | 42.69733 | 23.39550 | 1741 ft | 13 kts | 64° |
| 2026-05-04 16:11 | 42.69687 | 23.41024 | 1751 ft | 128 kts | 94° |
| 2026-05-04 16:11 | 42.69602 | 23.42474 | 1750 ft | 177 kts | 94° |
| 2026-05-04 16:12 | 42.69149 | 23.47665 | 3253 ft | 186 kts | 99° |
| 2026-05-04 16:12 | 42.68121 | 23.52720 | 4945 ft | 186 kts | 109° |
| 2026-05-04 16:13 | 42.68134 | 23.56356 | 5499 ft | 208 kts | 68° |
| 2026-05-04 16:13 | 42.69702 | 23.60036 | 5974 ft | 248 kts | 50° |
| 2026-05-04 16:14 | 42.72056 | 23.63654 | 7223 ft | 258 kts | 46° |
| 2026-05-04 16:14 | 42.74517 | 23.67244 | 8751 ft | 260 kts | 46° |
| 2026-05-04 16:15 | 42.78097 | 23.72693 | 11004 ft | 257 kts | 48° |
| 2026-05-04 16:16 | 42.80425 | 23.76313 | 12496 ft | 249 kts | 47° |
| 2026-05-04 16:16 | 42.83298 | 23.80673 | 14427 ft | 237 kts | 47° |
| 2026-05-04 16:17 | 42.85549 | 23.84139 | 15064 ft | 257 kts | 47° |
| 2026-05-04 16:18 | 42.89352 | 23.90046 | 15895 ft | 298 kts | 47° |
| 2026-05-04 16:18 | 42.90751 | 23.92222 | 16175 ft | 311 kts | 47° |
| 2026-05-04 16:19 | 42.95299 | 23.99310 | 16966 ft | 349 kts | 47° |
| 2026-05-04 16:19 | 42.98599 | 24.04493 | 17459 ft | 371 kts | 47° |
| 2026-05-04 16:20 | 43.03713 | 24.12580 | 18742 ft | 382 kts | 47° |
| 2026-05-04 16:20 | 43.07220 | 24.18130 | 19481 ft | 389 kts | 47° |
| 2026-05-04 16:21 | 43.13227 | 24.25713 | 20577 ft | 397 kts | 37° |
| 2026-05-04 16:22 | 43.17688 | 24.30339 | 20993 ft | 411 kts | 36° |
| 2026-05-04 16:22 | 43.24807 | 24.37608 | 20990 ft | 435 kts | 36° |
| 2026-05-04 16:23 | 43.32068 | 24.45133 | 20982 ft | 436 kts | 36° |
| 2026-05-04 16:24 | 43.41782 | 24.55238 | 20980 ft | 441 kts | 36° |
| 2026-05-04 16:25 | 43.46646 | 24.60311 | 20978 ft | 441 kts | 36° |
| 2026-05-04 16:26 | 43.56438 | 24.70551 | 20969 ft | 441 kts | 37° |
| 2026-05-04 16:26 | 43.63743 | 24.78217 | 20966 ft | 442 kts | 37° |
| 2026-05-04 16:27 | 43.68619 | 24.83385 | 20956 ft | 442 kts | 40° |
| 2026-05-04 16:28 | 43.74760 | 24.92781 | 20355 ft | 430 kts | 49° |
| 2026-05-04 16:28 | 43.80020 | 25.02037 | 19451 ft | 387 kts | 50° |
| 2026-05-04 16:29 | 43.86482 | 25.13360 | 17224 ft | 365 kts | 50° |
| 2026-05-04 16:30 | 43.91114 | 25.21446 | 15436 ft | 352 kts | 50° |
| 2026-05-04 16:31 | 43.94139 | 25.26735 | 14284 ft | 344 kts | 50° |
| 2026-05-04 16:31 | 43.98511 | 25.34395 | 12421 ft | 334 kts | 50° |
| 2026-05-04 16:32 | 44.02804 | 25.41936 | 10970 ft | 328 kts | 49° |
| 2026-05-04 16:33 | 44.06484 | 25.45433 | 10932 ft | 325 kts | 18° |
| 2026-05-04 16:33 | 44.10754 | 25.47002 | 10316 ft | 308 kts | 14° |
| 2026-05-04 16:34 | 44.14735 | 25.48397 | 9855 ft | 278 kts | 15° |
| 2026-05-04 16:34 | 44.16569 | 25.49056 | 9349 ft | 268 kts | 15° |
| 2026-05-04 16:35 | 44.21815 | 25.50969 | 8712 ft | 256 kts | 15° |
| 2026-05-04 16:35 | 44.27114 | 25.51332 | 7371 ft | 255 kts | 355° |
| 2026-05-04 16:36 | 44.28869 | 25.51047 | 7017 ft | 251 kts | 355° |
| 2026-05-04 16:36 | 44.32176 | 25.50507 | 6579 ft | 233 kts | 355° |
| 2026-05-04 16:37 | 44.35371 | 25.50519 | 5698 ft | 230 kts | 14° |
| 2026-05-04 16:37 | 44.36814 | 25.51470 | 5072 ft | 232 kts | 35° |
| 2026-05-04 16:37 | 44.39021 | 25.54811 | 4001 ft | 233 kts | 46° |
| 2026-05-04 16:38 | 44.41106 | 25.58262 | 3961 ft | 233 kts | 46° |
| 2026-05-04 16:39 | 44.44180 | 25.63254 | 4005 ft | 220 kts | 45° |
| 2026-05-04 16:39 | 44.46253 | 25.66621 | 3995 ft | 239 kts | 47° |
| 2026-05-04 16:40 | 44.48373 | 25.70252 | 4005 ft | 241 kts | 48° |
| 2026-05-04 16:40 | 44.50430 | 25.73717 | 3596 ft | 223 kts | 46° |
| 2026-05-04 16:41 | 44.52459 | 25.76935 | 2628 ft | 220 kts | 45° |
| 2026-05-04 16:41 | 44.54455 | 25.82216 | 2503 ft | 187 kts | 77° |
| 2026-05-04 16:42 | 44.54947 | 25.87526 | 2520 ft | 184 kts | 82° |
| 2026-05-04 16:43 | 44.55220 | 25.91028 | 2517 ft | 177 kts | 81° |
| 2026-05-04 16:43 | 44.55470 | 25.94215 | 2193 ft | 160 kts | 82° |
| 2026-05-04 16:43 | 44.55582 | 25.95742 | 1885 ft | 154 kts | 83° |
| 2026-05-04 16:44 | 44.55985 | 26.01174 | 1188 ft | 152 kts | 83° |
| 2026-05-04 16:45 | 44.56236 | 26.04523 | 763 ft | 145 kts | 84° |
| 2026-05-04 16:46 | 44.56514 | 26.08239 | 320 ft | 137 kts | 87° |
| 2026-05-04 16:46 | 44.56646 | 26.10054 | 321 ft | 60 kts | 84° |
| 2026-05-04 16:47 | 44.56707 | 26.10724 | 319 ft | 20 kts | 53° |
| 2026-05-04 16:47 | 44.56786 | 26.10762 | 321 ft | 0 kts | 349° |
| 2026-05-04 16:48 | 44.56917 | 26.10738 | 321 ft | 14 kts | 353° |
| 2026-05-04 16:48 | 44.57006 | 26.10693 | 321 ft | 13 kts | 313° |
| 2026-05-04 16:49 | 44.57069 | 26.10453 | 320 ft | 12 kts | 266° |
| 2026-05-04 16:49 | 44.57046 | 26.10227 | 320 ft | 12 kts | 262° |
| 2026-05-04 16:50 | 44.57023 | 26.09951 | 319 ft | 18 kts | 264° |
| 2026-05-04 16:50 | 44.56990 | 26.09505 | 319 ft | 25 kts | 264° |
| 2026-05-04 16:51 | 44.56953 | 26.09031 | 318 ft | 24 kts | 264° |
| 2026-05-04 16:51 | 44.56936 | 26.08800 | 318 ft | 22 kts | 265° |
| 2026-05-04 16:51 | 44.57004 | 26.08539 | 318 ft | 15 kts | 352° |
| 2026-05-04 16:52 | 44.57202 | 26.08503 | 321 ft | 12 kts | 337° |
| 2026-05-04 16:52 | 44.57226 | 26.08440 | 321 ft | 7 kts | 274° |
| 2026-05-04 16:53 | 44.57213 | 26.08270 | 321 ft | 12 kts | 262° |
| 2026-05-04 16:53 | 44.57138 | 26.08058 | 320 ft | 7 kts | 172° |
| 2026-05-04 16:54 | 44.57125 | 26.08061 | 320 ft | 0 kts | 172° |